Terminal Aerodrome Forecast
Issued by NWS Dodge City, KS

Home | Current Version | Previous Version | Graphics & Text | Print | Product List | Glossary Off
Versions: 1 2 3 4 5 6 7 8 9 10 11 12 13 14 15 16 17 18

000
FTUS43 KDDC 280325 AAA
TAFDDC
TAF AMD
KDDC 280325Z 2803/2824 17019G29KT P6SM BKN200
     FM280400 17015KT P6SM BKN150 WS020/18050KT
     FM281300 19019G27KT P6SM FEW250
     FM281900 21012KT P6SM FEW200=

USA.gov is the U.S. government's official web portal to all federal, state and local government web resources and services.